createdAt,value
2023-05-02T00:00:19.809Z,9.60
2023-05-02T00:01:41.943Z,9.60
2023-05-02T00:03:06.361Z,9.60
2023-05-02T00:04:29.559Z,9.60
2023-05-02T00:05:51.786Z,9.60
2023-05-02T00:07:13.854Z,9.50
2023-05-02T00:08:36.043Z,9.50
2023-05-02T00:09:58.728Z,9.50
2023-05-02T00:11:21.395Z,9.50
2023-05-02T00:12:43.537Z,9.50
2023-05-02T00:14:05.712Z,9.40
2023-05-02T00:15:28.028Z,9.40
2023-05-02T00:16:50.212Z,9.40
2023-05-02T00:18:12.389Z,9.40
2023-05-02T00:19:39.995Z,9.40
2023-05-02T00:21:02.269Z,9.40
2023-05-02T00:22:24.369Z,9.40
2023-05-02T00:23:46.471Z,9.40
2023-05-02T00:25:09.222Z,9.30
2023-05-02T00:26:31.368Z,9.30
2023-05-02T00:27:53.526Z,9.30
2023-05-02T00:29:15.601Z,9.30
2023-05-02T00:30:43.789Z,9.30
2023-05-02T00:32:06.525Z,9.30
2023-05-02T00:33:28.529Z,9.30
2023-05-02T00:34:50.751Z,9.30
2023-05-02T00:36:16.802Z,9.30
2023-05-02T00:37:39.246Z,9.20
2023-05-02T00:39:01.462Z,9.20
2023-05-02T00:40:23.506Z,9.20
2023-05-02T00:41:45.590Z,9.20
2023-05-02T00:43:07.619Z,9.20
2023-05-02T00:44:29.718Z,9.20
2023-05-02T00:45:52.115Z,9.20
2023-05-02T00:47:15.581Z,9.20
2023-05-02T00:48:37.850Z,9.20
2023-05-02T00:50:01.269Z,9.20
2023-05-02T00:51:23.626Z,9.20
2023-05-02T00:52:45.762Z,9.20
2023-05-02T00:54:07.963Z,9.20
2023-05-02T00:55:31.214Z,9.20
2023-05-02T00:56:53.278Z,9.10
2023-05-02T00:58:17.109Z,9.10
2023-05-02T00:59:39.590Z,9.10
2023-05-02T01:01:20.093Z,9.10
2023-05-02T01:03:10.798Z,9.10
2023-05-02T01:05:01.545Z,9.00
2023-05-02T01:06:32.626Z,9.00
2023-05-02T01:08:29.105Z,9.00
2023-05-02T01:10:18.614Z,9.00
2023-05-02T01:12:12.441Z,9.00
2023-05-02T01:13:36.581Z,8.90
2023-05-02T01:15:02.222Z,8.90
2023-05-02T01:16:25.144Z,8.90
2023-05-02T01:17:48.576Z,8.80
2023-05-02T01:19:25.052Z,8.80
2023-05-02T01:20:51.056Z,8.80
2023-05-02T01:22:14.456Z,8.70
2023-05-02T01:23:48.656Z,8.70
2023-05-02T01:25:16.925Z,8.70
2023-05-02T01:27:09.808Z,8.60
2023-05-02T01:28:54.351Z,8.60
2023-05-02T01:30:20.593Z,8.60
2023-05-02T01:31:46.294Z,8.60
2023-05-02T01:33:11.778Z,8.60
2023-05-02T01:34:36.340Z,8.50
2023-05-02T01:36:01.366Z,8.50
2023-05-02T01:37:24.499Z,8.50
2023-05-02T01:38:47.442Z,8.50
2023-05-02T01:40:10.808Z,8.50
2023-05-02T01:41:34.585Z,8.40
2023-05-02T01:42:58.218Z,8.40
2023-05-02T01:44:23.015Z,8.40
2023-05-02T01:45:47.232Z,8.40
2023-05-02T01:47:10.349Z,8.40
2023-05-02T01:48:33.354Z,8.40
2023-05-02T01:49:56.389Z,8.40
2023-05-02T01:51:20.613Z,8.40
2023-05-02T01:52:44.281Z,8.30
2023-05-02T01:54:08.909Z,8.30
2023-05-02T01:55:33.472Z,8.30
2023-05-02T01:56:56.634Z,8.30
2023-05-02T01:58:20.630Z,8.30
2023-05-02T01:59:44.744Z,8.30
2023-05-02T02:01:09.601Z,8.30
2023-05-02T02:02:34.040Z,8.30
2023-05-02T02:03:57.831Z,8.20
2023-05-02T02:05:21.308Z,8.20
2023-05-02T02:06:48.583Z,8.20
2023-05-02T02:08:10.838Z,8.20
2023-05-02T02:09:33.154Z,8.20
2023-05-02T02:11:04.333Z,8.10
2023-05-02T02:12:37.059Z,8.10
2023-05-02T02:14:06.701Z,8.10
2023-05-02T02:15:30.602Z,8.10
2023-05-02T02:16:56.444Z,8.00
2023-05-02T02:18:22.189Z,8.00
2023-05-02T02:19:45.753Z,8.00
2023-05-02T02:21:11.270Z,8.00
2023-05-02T02:22:37.323Z,8.00
2023-05-02T02:24:03.988Z,8.00
2023-05-02T02:25:27.242Z,8.00
2023-05-02T02:26:49.470Z,7.90
2023-05-02T02:28:11.635Z,7.90
2023-05-02T02:29:33.740Z,7.90
2023-05-02T02:30:56.521Z,7.90
2023-05-02T02:32:18.683Z,7.90
2023-05-02T02:33:41.243Z,7.90
2023-05-02T02:35:04.412Z,7.90
2023-05-02T02:36:42.521Z,7.90
2023-05-02T02:38:23.449Z,7.80
2023-05-02T02:40:07.095Z,7.80
2023-05-02T02:41:40.063Z,7.80
2023-05-02T02:43:10.089Z,7.80
2023-05-02T02:45:16.988Z,7.80
2023-05-02T02:46:42.308Z,7.80
2023-05-02T02:48:07.264Z,7.80
2023-05-02T02:49:40.074Z,7.90
2023-05-02T02:51:02.142Z,7.90
2023-05-02T02:52:48.935Z,7.90
2023-05-02T02:54:33.271Z,7.90
2023-05-02T02:56:03.038Z,7.90
2023-05-02T02:57:39.519Z,7.90
2023-05-02T02:59:25.274Z,7.90
2023-05-02T03:00:49.696Z,8.00
2023-05-02T03:02:17.075Z,8.00
2023-05-02T03:03:40.878Z,8.00
2023-05-02T03:05:04.414Z,8.10
2023-05-02T03:06:27.428Z,8.10
2023-05-02T03:07:49.621Z,8.20
2023-05-02T03:09:18.619Z,8.20
2023-05-02T03:10:40.983Z,8.20
2023-05-02T03:12:03.303Z,8.20
2023-05-02T03:13:25.399Z,8.20
2023-05-02T03:14:47.625Z,8.20
2023-05-02T03:16:28.250Z,8.20
2023-05-02T03:17:50.442Z,8.20
2023-05-02T03:19:12.740Z,8.20
2023-05-02T03:20:34.867Z,8.20
2023-05-02T03:21:57.503Z,8.20
2023-05-02T03:23:19.557Z,8.20
2023-05-02T03:24:41.745Z,8.20
2023-05-02T03:26:04.060Z,8.10
2023-05-02T03:27:26.338Z,8.10
2023-05-02T03:28:50.361Z,8.20
2023-05-02T03:30:12.616Z,8.20
2023-05-02T03:31:35.078Z,8.20
2023-05-02T03:32:57.236Z,8.20
2023-05-02T03:34:21.853Z,8.30
2023-05-02T03:35:44.018Z,8.30
2023-05-02T03:37:06.086Z,8.40
2023-05-02T03:38:29.987Z,8.40
2023-05-02T03:39:52.186Z,8.50
2023-05-02T03:41:14.275Z,8.50
2023-05-02T03:42:45.034Z,8.50
2023-05-02T03:44:07.144Z,8.60
2023-05-02T03:45:29.200Z,8.60
2023-05-02T03:46:51.734Z,8.60
2023-05-02T03:48:13.922Z,8.60
2023-05-02T03:49:36.792Z,8.70
2023-05-02T03:50:58.900Z,8.70
2023-05-02T03:52:20.939Z,8.70
2023-05-02T03:53:43.516Z,8.80
2023-05-02T03:55:07.794Z,8.80
2023-05-02T03:56:30.136Z,8.80
2023-05-02T03:57:52.227Z,8.80
2023-05-02T03:59:15.403Z,8.90
2023-05-02T04:00:38.295Z,8.90
2023-05-02T04:02:00.442Z,8.80
2023-05-02T04:03:23.127Z,8.80
2023-05-02T04:04:45.297Z,8.90
2023-05-02T04:06:07.435Z,8.90
2023-05-02T04:07:29.632Z,8.90
2023-05-02T04:08:51.891Z,9.00
2023-05-02T04:10:16.609Z,9.00
2023-05-02T04:11:38.658Z,9.10
2023-05-02T04:13:02.995Z,9.20
2023-05-02T04:14:25.214Z,9.50
2023-05-02T04:15:47.288Z,9.70
2023-05-02T04:17:09.574Z,9.80
2023-05-02T04:18:31.793Z,10.00
2023-05-02T04:19:53.861Z,10.10
2023-05-02T04:21:15.887Z,10.10
2023-05-02T04:22:39.655Z,10.20
2023-05-02T04:24:01.822Z,10.30
2023-05-02T04:25:23.875Z,10.40
2023-05-02T04:26:48.661Z,10.50
2023-05-02T04:28:10.702Z,10.50
2023-05-02T04:29:32.755Z,10.50
2023-05-02T04:30:56.062Z,10.60
2023-05-02T04:32:18.180Z,10.60
2023-05-02T04:33:40.262Z,10.60
2023-05-02T04:35:02.713Z,10.60
2023-05-02T04:36:26.196Z,10.60
2023-05-02T04:37:48.326Z,10.50
2023-05-02T04:39:10.394Z,10.60
2023-05-02T04:40:33.188Z,10.60
2023-05-02T04:41:55.335Z,10.50
2023-05-02T04:43:17.442Z,10.50
2023-05-02T04:44:39.465Z,10.50
2023-05-02T04:46:01.648Z,10.50
2023-05-02T04:47:23.769Z,10.50
2023-05-02T04:48:45.855Z,10.50
2023-05-02T04:50:08.607Z,10.50
2023-05-02T04:51:31.685Z,10.60
2023-05-02T04:52:54.090Z,10.60
2023-05-02T04:54:16.164Z,10.60
2023-05-02T04:55:38.209Z,10.60
2023-05-02T04:57:03.252Z,10.60
2023-05-02T04:58:25.309Z,10.60
2023-05-02T04:59:47.396Z,10.60
2023-05-02T05:01:09.579Z,10.60
2023-05-02T05:02:31.812Z,10.60
2023-05-02T05:03:54.854Z,10.70
2023-05-02T05:05:17.057Z,10.70
2023-05-02T05:06:39.147Z,10.70
2023-05-02T05:08:01.242Z,10.70
2023-05-02T05:09:23.397Z,10.70
2023-05-02T05:10:48.671Z,10.60
2023-05-02T05:12:10.936Z,10.60
2023-05-02T05:13:36.257Z,10.60
2023-05-02T05:14:58.351Z,10.60
2023-05-02T05:16:20.417Z,10.60
2023-05-02T05:17:42.718Z,10.60
2023-05-02T05:19:05.162Z,10.60
2023-05-02T05:20:27.218Z,10.60
2023-05-02T05:21:49.335Z,10.60
2023-05-02T05:23:11.662Z,10.60
2023-05-02T05:24:33.891Z,10.50
2023-05-02T05:25:55.957Z,10.50
2023-05-02T05:27:18.011Z,10.50
2023-05-02T05:28:40.054Z,10.50
2023-05-02T05:30:03.579Z,10.50
2023-05-02T05:31:25.798Z,10.50
2023-05-02T05:32:48.541Z,10.50
2023-05-02T05:34:10.671Z,10.50
2023-05-02T05:35:32.838Z,10.50
2023-05-02T05:36:54.997Z,10.50
2023-05-02T05:38:17.040Z,10.50
2023-05-02T05:39:39.103Z,10.50
2023-05-02T05:41:01.778Z,10.50
2023-05-02T05:42:23.890Z,10.40
2023-05-02T05:43:46.211Z,10.40
2023-05-02T05:45:09.168Z,10.30
2023-05-02T05:46:31.319Z,10.20
2023-05-02T05:47:55.942Z,10.10
2023-05-02T05:49:18.290Z,10.10
2023-05-02T05:50:40.390Z,10.00
2023-05-02T05:52:02.970Z,9.90
2023-05-02T05:53:25.100Z,9.80
2023-05-02T05:54:47.202Z,9.80
2023-05-02T05:56:13.148Z,9.70
2023-05-02T05:57:35.305Z,9.70
2023-05-02T05:58:57.414Z,9.70
2023-05-02T06:00:19.671Z,9.70
2023-05-02T06:01:42.562Z,9.70
2023-05-02T06:03:06.607Z,9.70
2023-05-02T06:04:30.603Z,9.70
2023-05-02T06:05:52.673Z,9.70
2023-05-02T06:07:14.731Z,9.80
2023-05-02T06:08:36.829Z,10.00
2023-05-02T06:09:59.048Z,10.10
2023-05-02T06:11:21.264Z,10.30
2023-05-02T06:12:43.297Z,10.50
2023-05-02T06:14:05.473Z,10.60
2023-05-02T06:15:27.563Z,10.70
2023-05-02T06:16:49.632Z,10.70
2023-05-02T06:18:11.813Z,10.80
2023-05-02T06:19:33.879Z,10.70
2023-05-02T06:20:55.967Z,10.70
2023-05-02T06:22:18.038Z,10.60
2023-05-02T06:23:41.056Z,10.70
2023-05-02T06:25:05.134Z,10.60
2023-05-02T06:26:27.233Z,10.60
2023-05-02T06:27:49.481Z,10.60
2023-05-02T06:29:11.501Z,10.80
2023-05-02T06:30:33.635Z,10.90
2023-05-02T06:31:57.121Z,10.80
2023-05-02T06:33:19.219Z,10.70
2023-05-02T06:34:41.260Z,10.70
2023-05-02T06:36:03.768Z,10.70
2023-05-02T06:37:25.981Z,10.70
2023-05-02T06:38:48.404Z,10.70
2023-05-02T06:40:11.119Z,10.60
2023-05-02T06:41:33.172Z,10.50
2023-05-02T06:42:55.700Z,10.50
2023-05-02T06:44:17.701Z,10.50
2023-05-02T06:45:40.642Z,10.40
2023-05-02T06:47:04.722Z,10.20
2023-05-02T06:48:26.809Z,10.10
2023-05-02T06:49:48.864Z,10.10
2023-05-02T06:51:10.970Z,10.10
2023-05-02T06:52:32.999Z,10.20
2023-05-02T06:53:55.029Z,10.30
2023-05-02T06:55:17.172Z,10.50
2023-05-02T06:56:39.233Z,10.50
2023-05-02T06:58:01.291Z,10.60
2023-05-02T06:59:23.544Z,10.60
2023-05-02T07:00:45.759Z,10.50
2023-05-02T07:02:07.956Z,10.30
2023-05-02T07:03:30.133Z,10.20
2023-05-02T07:04:52.262Z,10.10
2023-05-02T07:06:14.573Z,10.10
2023-05-02T07:07:36.719Z,10.10
2023-05-02T07:08:58.799Z,10.20
2023-05-02T07:10:20.990Z,10.40
2023-05-02T07:11:43.071Z,10.50
2023-05-02T07:13:05.117Z,10.70
2023-05-02T07:14:27.229Z,10.70
2023-05-02T07:15:49.254Z,10.70
2023-05-02T07:17:11.345Z,10.60
2023-05-02T07:18:33.481Z,10.40
2023-05-02T07:19:56.413Z,10.40
2023-05-02T07:21:19.206Z,10.60
2023-05-02T07:22:41.392Z,10.70
2023-05-02T07:24:03.603Z,11.00
2023-05-02T07:25:25.817Z,10.90
2023-05-02T07:26:47.839Z,10.70
2023-05-02T07:28:09.930Z,10.70
2023-05-02T07:29:31.961Z,10.60
2023-05-02T07:30:54.082Z,10.60
2023-05-02T07:32:16.200Z,10.70
2023-05-02T07:33:38.338Z,10.80
2023-05-02T07:35:00.421Z,10.90
2023-05-02T07:36:22.633Z,11.00
2023-05-02T07:37:44.783Z,11.10
2023-05-02T07:39:07.003Z,11.00
2023-05-02T07:40:29.028Z,10.80
2023-05-02T07:41:54.714Z,10.70
2023-05-02T07:43:19.134Z,10.70
2023-05-02T07:44:41.456Z,10.80
2023-05-02T07:46:06.664Z,11.00
2023-05-02T07:47:29.324Z,11.00
2023-05-02T07:48:53.836Z,11.00
2023-05-02T07:50:15.921Z,10.90
2023-05-02T07:51:39.851Z,10.70
2023-05-02T07:53:01.984Z,10.60
2023-05-02T07:54:26.262Z,10.70
2023-05-02T07:55:48.276Z,10.80
2023-05-02T07:57:10.333Z,10.80
2023-05-02T07:58:32.553Z,10.60
2023-05-02T07:59:57.168Z,10.50
2023-05-02T08:01:20.040Z,10.50
2023-05-02T08:02:42.798Z,10.70
2023-05-02T08:04:05.588Z,10.80
2023-05-02T08:05:27.985Z,10.90
2023-05-02T08:06:50.396Z,10.90
2023-05-02T08:08:12.575Z,11.00
2023-05-02T08:09:37.345Z,10.90
2023-05-02T08:10:59.391Z,10.80
2023-05-02T08:12:21.624Z,10.70
2023-05-02T08:13:43.706Z,10.70
2023-05-02T08:15:08.349Z,10.70
2023-05-02T08:16:30.690Z,10.70
2023-05-02T08:17:52.834Z,10.60
2023-05-02T08:19:15.718Z,10.60
2023-05-02T08:20:38.176Z,10.60
2023-05-02T08:22:00.285Z,10.70
2023-05-02T08:23:22.322Z,10.80
2023-05-02T08:24:44.437Z,10.90
2023-05-02T08:26:06.608Z,10.90
2023-05-02T08:27:28.687Z,11.10
2023-05-02T08:28:54.941Z,11.20
2023-05-02T08:30:17.081Z,11.40
2023-05-02T08:31:41.042Z,11.60
2023-05-02T08:33:03.323Z,11.70
2023-05-02T08:34:25.637Z,11.60
2023-05-02T08:35:48.166Z,11.40
2023-05-02T08:37:12.048Z,11.40
2023-05-02T08:38:34.118Z,11.40
2023-05-02T08:39:56.376Z,11.70
2023-05-02T08:41:19.322Z,11.80
2023-05-02T08:42:43.923Z,12.00
2023-05-02T08:44:07.875Z,12.10
2023-05-02T08:45:37.574Z,12.10
2023-05-02T08:47:00.446Z,12.30
2023-05-02T08:48:23.174Z,12.50
2023-05-02T08:49:46.635Z,12.50
2023-05-02T08:51:13.409Z,12.40
2023-05-02T08:52:36.535Z,12.40
2023-05-02T08:53:59.850Z,12.30
2023-05-02T08:55:27.686Z,12.20
2023-05-02T08:56:49.918Z,12.00
2023-05-02T08:58:13.960Z,11.60
2023-05-02T08:59:37.578Z,11.60
2023-05-02T09:01:08.705Z,11.60
2023-05-02T09:03:06.359Z,11.50
2023-05-02T09:04:33.022Z,11.50
2023-05-02T09:06:12.979Z,11.50
2023-05-02T09:07:49.016Z,11.70
2023-05-02T09:09:11.185Z,12.00
2023-05-02T09:10:39.102Z,12.10
2023-05-02T09:12:01.855Z,12.10
2023-05-02T09:13:42.295Z,12.30
2023-05-02T09:15:19.187Z,12.60
2023-05-02T09:16:43.526Z,13.00
2023-05-02T09:18:06.022Z,13.20
2023-05-02T09:19:28.366Z,12.90
2023-05-02T09:20:51.138Z,12.70
2023-05-02T09:22:23.348Z,12.80
2023-05-02T09:23:52.861Z,12.80
2023-05-02T09:25:15.823Z,12.90
2023-05-02T09:26:37.990Z,13.10
2023-05-02T09:28:01.858Z,13.40
2023-05-02T09:29:24.024Z,13.50
2023-05-02T09:30:46.959Z,13.20
2023-05-02T09:32:09.520Z,12.70
2023-05-02T09:33:31.698Z,12.40
2023-05-02T09:35:06.946Z,12.10
2023-05-02T09:36:40.639Z,11.90
2023-05-02T09:38:03.636Z,12.10
2023-05-02T09:39:31.297Z,12.40
2023-05-02T09:40:56.557Z,12.60
2023-05-02T09:42:31.516Z,12.60
2023-05-02T09:43:59.486Z,12.50
2023-05-02T09:45:25.292Z,12.50
2023-05-02T09:46:52.946Z,12.60
2023-05-02T09:48:15.500Z,12.70
2023-05-02T09:49:42.577Z,12.60
2023-05-02T09:51:16.565Z,12.60
2023-05-02T09:52:38.655Z,12.60
2023-05-02T09:54:00.884Z,12.50
2023-05-02T09:55:23.108Z,12.30
2023-05-02T09:56:57.828Z,12.40
2023-05-02T09:58:23.639Z,12.50
2023-05-02T09:59:59.009Z,12.60
2023-05-02T10:01:21.614Z,12.70
2023-05-02T10:02:43.920Z,12.90
2023-05-02T10:04:06.408Z,13.00
2023-05-02T10:05:29.946Z,13.20
2023-05-02T10:06:53.660Z,13.30
2023-05-02T10:08:18.592Z,13.30
2023-05-02T10:09:44.762Z,13.30
2023-05-02T10:11:09.173Z,13.40
2023-05-02T10:12:33.473Z,13.60
2023-05-02T10:13:55.689Z,13.90
2023-05-02T10:15:22.157Z,14.20
2023-05-02T10:17:12.457Z,14.20
2023-05-02T10:18:56.692Z,13.70
2023-05-02T10:20:27.013Z,13.40
2023-05-02T10:21:50.532Z,13.10
2023-05-02T10:23:12.908Z,13.00
2023-05-02T10:24:35.067Z,13.10
2023-05-02T10:26:00.324Z,13.30
2023-05-02T10:27:22.617Z,13.50
2023-05-02T10:28:45.810Z,13.80
2023-05-02T10:30:09.435Z,13.90
2023-05-02T10:31:35.113Z,14.20
2023-05-02T10:33:00.146Z,14.20
2023-05-02T10:34:22.885Z,14.30
2023-05-02T10:35:47.257Z,14.40
2023-05-02T10:37:09.298Z,14.20
2023-05-02T10:38:32.259Z,13.90
2023-05-02T10:39:54.570Z,13.90
2023-05-02T10:41:20.551Z,13.80
2023-05-02T10:42:46.197Z,13.80
2023-05-02T10:44:08.891Z,13.70
2023-05-02T10:45:37.826Z,13.70
2023-05-02T10:47:00.337Z,13.60
2023-05-02T10:48:27.715Z,13.50
2023-05-02T10:49:56.661Z,13.40
2023-05-02T10:51:31.903Z,13.60
2023-05-02T10:52:54.068Z,13.80
2023-05-02T10:54:23.762Z,13.90
2023-05-02T10:55:46.173Z,13.90
2023-05-02T10:57:08.602Z,13.80
2023-05-02T10:58:30.626Z,13.80
2023-05-02T10:59:52.621Z,13.90
2023-05-02T11:01:29.727Z,13.90
2023-05-02T11:02:52.191Z,14.00
2023-05-02T11:04:14.875Z,14.10
2023-05-02T11:06:08.733Z,14.20
2023-05-02T11:07:32.599Z,14.10
2023-05-02T11:09:14.563Z,13.90
2023-05-02T11:10:36.615Z,14.10
2023-05-02T11:11:59.116Z,14.20
2023-05-02T11:13:49.523Z,14.50
2023-05-02T11:15:12.711Z,14.90
2023-05-02T11:17:08.302Z,14.80
2023-05-02T11:19:00.752Z,14.80
2023-05-02T11:20:23.477Z,14.70
2023-05-02T11:21:45.541Z,14.50
2023-05-02T11:23:22.091Z,14.60
2023-05-02T11:24:47.548Z,14.60
2023-05-02T11:26:26.006Z,14.30
2023-05-02T11:27:49.268Z,13.90
2023-05-02T11:29:11.436Z,13.70
2023-05-02T11:30:54.523Z,13.70
2023-05-02T11:32:17.526Z,13.90
2023-05-02T11:33:39.753Z,13.70
2023-05-02T11:35:01.971Z,13.70
2023-05-02T11:36:30.786Z,13.50
2023-05-02T11:38:19.142Z,13.50
2023-05-02T11:39:41.506Z,13.80
2023-05-02T11:41:04.416Z,13.80
2023-05-02T11:42:31.108Z,13.60
2023-05-02T11:44:05.595Z,13.50
2023-05-02T11:45:38.000Z,13.40
2023-05-02T11:47:02.298Z,13.40
2023-05-02T11:48:27.383Z,13.30
2023-05-02T11:49:49.819Z,13.50
2023-05-02T11:51:12.119Z,13.80
2023-05-02T11:52:41.531Z,13.80
2023-05-02T11:54:04.119Z,14.00
2023-05-02T11:55:27.173Z,14.40
2023-05-02T11:56:49.467Z,14.60
2023-05-02T11:58:14.943Z,14.70
2023-05-02T11:59:58.101Z,14.60
2023-05-02T12:01:20.327Z,14.50
2023-05-02T12:02:44.926Z,14.60
2023-05-02T12:04:08.503Z,14.20
2023-05-02T12:05:31.608Z,14.00
2023-05-02T12:06:58.117Z,13.80
2023-05-02T12:08:31.392Z,13.50
2023-05-02T12:09:54.456Z,13.50
2023-05-02T12:11:17.206Z,13.40
2023-05-02T12:12:40.953Z,13.40
2023-05-02T12:14:04.575Z,13.50
2023-05-02T12:15:27.063Z,13.30
2023-05-02T12:16:49.387Z,13.20
2023-05-02T12:18:12.328Z,13.10
2023-05-02T12:19:43.655Z,13.10
2023-05-02T12:21:06.818Z,13.10
2023-05-02T12:22:29.388Z,13.30
2023-05-02T12:23:51.762Z,13.40
2023-05-02T12:25:14.168Z,13.60
2023-05-02T12:26:38.968Z,13.80
2023-05-02T12:28:02.479Z,13.90
2023-05-02T12:29:41.624Z,14.00
2023-05-02T12:31:11.127Z,14.00
2023-05-02T12:32:36.368Z,13.90
2023-05-02T12:34:00.501Z,13.80
2023-05-02T12:35:23.150Z,13.80
2023-05-02T12:36:45.606Z,14.10
2023-05-02T12:38:23.550Z,14.40
2023-05-02T12:39:45.769Z,14.60
2023-05-02T12:41:08.248Z,14.80
2023-05-02T12:42:33.235Z,14.90
2023-05-02T12:43:55.514Z,14.70
2023-05-02T12:45:18.317Z,14.80
2023-05-02T12:46:59.596Z,14.80
2023-05-02T12:48:26.423Z,14.60
2023-05-02T12:50:00.599Z,14.20
2023-05-02T12:51:24.208Z,14.00
2023-05-02T12:52:51.518Z,14.10
2023-05-02T12:54:21.354Z,14.40
2023-05-02T12:55:43.753Z,14.40
2023-05-02T12:57:05.994Z,14.30
2023-05-02T12:58:28.618Z,14.30
2023-05-02T12:59:53.283Z,14.30
2023-05-02T13:01:15.999Z,14.30
2023-05-02T13:02:38.354Z,13.90
2023-05-02T13:04:00.687Z,13.50
2023-05-02T13:05:23.158Z,13.10
2023-05-02T13:06:46.966Z,13.10
2023-05-02T13:08:09.398Z,13.00
2023-05-02T13:09:32.027Z,13.00
2023-05-02T13:10:54.430Z,13.20
2023-05-02T13:12:16.911Z,13.50
2023-05-02T13:13:39.456Z,13.70
2023-05-02T13:15:01.753Z,13.70
2023-05-02T13:16:24.046Z,13.80
2023-05-02T13:17:46.666Z,13.80
2023-05-02T13:19:08.906Z,13.80
2023-05-02T13:20:31.294Z,13.70
2023-05-02T13:21:53.418Z,13.80
2023-05-02T13:23:16.847Z,14.00
2023-05-02T13:24:39.043Z,14.00
2023-05-02T13:26:01.232Z,13.80
2023-05-02T13:27:24.151Z,13.70
2023-05-02T13:28:46.366Z,13.50
2023-05-02T13:30:10.186Z,13.20
2023-05-02T13:31:32.745Z,13.10
2023-05-02T13:32:58.441Z,13.10
2023-05-02T13:34:21.833Z,13.00
2023-05-02T13:35:43.855Z,12.90
2023-05-02T13:37:06.047Z,12.80
2023-05-02T13:38:28.185Z,12.90
2023-05-02T13:39:50.789Z,12.90
2023-05-02T13:41:12.932Z,13.00
2023-05-02T13:42:35.261Z,13.00
2023-05-02T13:43:57.306Z,13.10
2023-05-02T13:45:19.556Z,13.20
2023-05-02T13:46:41.630Z,13.30
2023-05-02T13:48:04.023Z,13.40
2023-05-02T13:49:26.339Z,13.30
2023-05-02T13:50:48.404Z,13.40
2023-05-02T13:52:10.749Z,13.40
2023-05-02T13:53:32.782Z,13.30
2023-05-02T13:54:55.027Z,13.30
2023-05-02T13:56:17.254Z,13.30
2023-05-02T13:57:39.451Z,13.20
2023-05-02T13:59:01.698Z,13.10
2023-05-02T14:00:23.774Z,13.20
2023-05-02T14:01:45.984Z,13.40
2023-05-02T14:03:11.027Z,13.50
2023-05-02T14:04:33.324Z,13.70
2023-05-02T14:05:55.781Z,13.80
2023-05-02T14:07:17.878Z,14.00
2023-05-02T14:08:40.003Z,14.10
2023-05-02T14:10:02.260Z,14.20
2023-05-02T14:11:24.745Z,14.30
2023-05-02T14:12:46.976Z,14.40
2023-05-02T14:14:12.293Z,14.30
2023-05-02T14:15:34.358Z,14.20
2023-05-02T14:16:56.438Z,14.30
2023-05-02T14:18:18.571Z,14.60
2023-05-02T14:19:40.703Z,14.60
2023-05-02T14:21:04.143Z,14.60
2023-05-02T14:22:26.340Z,14.90
2023-05-02T14:23:48.382Z,15.10
2023-05-02T14:25:10.602Z,15.50
2023-05-02T14:26:33.166Z,15.60
2023-05-02T14:27:55.279Z,15.60
2023-05-02T14:29:18.060Z,15.30
2023-05-02T14:30:40.081Z,15.10
2023-05-02T14:32:02.204Z,15.00
2023-05-02T14:33:24.386Z,15.10
2023-05-02T14:34:46.455Z,15.10
2023-05-02T14:36:08.562Z,15.00
2023-05-02T14:37:31.060Z,15.10
2023-05-02T14:38:53.123Z,15.00
2023-05-02T14:40:15.915Z,15.00
2023-05-02T14:41:38.064Z,14.90
2023-05-02T14:43:00.368Z,14.80
2023-05-02T14:44:22.730Z,14.60
2023-05-02T14:45:44.727Z,14.40
2023-05-02T14:47:06.918Z,14.30
2023-05-02T14:48:29.150Z,14.20
2023-05-02T14:49:51.278Z,14.50
2023-05-02T14:51:13.360Z,14.60
2023-05-02T14:52:35.423Z,14.70
2023-05-02T14:53:57.758Z,14.60
2023-05-02T14:55:19.957Z,14.60
2023-05-02T14:56:42.525Z,14.60
2023-05-02T14:58:07.032Z,14.70
2023-05-02T14:59:29.754Z,14.80
2023-05-02T15:00:52.418Z,14.90
2023-05-02T15:02:14.464Z,14.80
2023-05-02T15:03:49.062Z,14.80
2023-05-02T15:05:18.733Z,14.70
2023-05-02T15:06:40.985Z,14.80
2023-05-02T15:08:03.234Z,14.90
2023-05-02T15:09:26.540Z,14.90
2023-05-02T15:10:48.783Z,15.00
2023-05-02T15:12:10.934Z,15.20
2023-05-02T15:13:32.963Z,15.10
2023-05-02T15:14:55.098Z,15.00
2023-05-02T15:16:17.371Z,14.70
2023-05-02T15:17:39.744Z,14.30
2023-05-02T15:19:01.888Z,14.20
2023-05-02T15:20:24.080Z,14.20
2023-05-02T15:21:46.201Z,14.00
2023-05-02T15:23:08.394Z,13.70
2023-05-02T15:24:30.629Z,13.50
2023-05-02T15:25:52.871Z,13.50
2023-05-02T15:27:15.212Z,13.60
2023-05-02T15:28:37.344Z,13.80
2023-05-02T15:29:59.879Z,14.00
2023-05-02T15:31:22.533Z,14.10
2023-05-02T15:32:47.577Z,14.20
2023-05-02T15:34:09.841Z,14.20
2023-05-02T15:35:31.987Z,14.10
2023-05-02T15:36:56.054Z,14.20
2023-05-02T15:38:18.194Z,14.30
2023-05-02T15:39:40.271Z,14.40
2023-05-02T15:41:02.412Z,14.50
2023-05-02T15:42:24.454Z,14.40
2023-05-02T15:43:46.532Z,14.40
2023-05-02T15:45:13.387Z,14.10
2023-05-02T15:46:35.522Z,14.00
2023-05-02T15:47:57.607Z,13.90
2023-05-02T15:49:19.896Z,13.80
2023-05-02T15:50:42.866Z,13.60
2023-05-02T15:52:05.457Z,13.50
2023-05-02T15:53:28.095Z,13.40
2023-05-02T15:54:51.732Z,13.30
2023-05-02T15:56:14.128Z,13.10
2023-05-02T15:57:36.238Z,13.00
2023-05-02T15:58:58.598Z,12.90
2023-05-02T16:00:21.301Z,12.90
2023-05-02T16:01:43.381Z,12.80
2023-05-02T16:03:06.220Z,12.80
2023-05-02T16:04:29.130Z,12.80
2023-05-02T16:05:53.549Z,12.90
2023-05-02T16:07:15.825Z,12.90
2023-05-02T16:08:38.073Z,13.00
2023-05-02T16:10:00.455Z,13.00
2023-05-02T16:11:22.976Z,13.00
2023-05-02T16:12:45.153Z,13.10
2023-05-02T16:14:07.304Z,13.00
2023-05-02T16:15:30.355Z,12.90
2023-05-02T16:16:52.519Z,12.90
2023-05-02T16:18:15.136Z,12.80
2023-05-02T16:19:37.313Z,12.70
2023-05-02T16:20:59.704Z,12.60
2023-05-02T16:22:21.856Z,12.40
2023-05-02T16:23:44.053Z,12.40
2023-05-02T16:25:07.153Z,12.40
2023-05-02T16:26:30.246Z,12.40
2023-05-02T16:27:52.697Z,12.40
2023-05-02T16:29:15.008Z,12.50
2023-05-02T16:30:37.886Z,12.40
2023-05-02T16:32:00.503Z,12.30
2023-05-02T16:33:25.608Z,12.30
2023-05-02T16:34:47.709Z,12.30
2023-05-02T16:36:10.202Z,12.10
2023-05-02T16:37:34.105Z,12.10
2023-05-02T16:38:56.420Z,12.10
2023-05-02T16:40:18.609Z,12.00
2023-05-02T16:41:40.920Z,12.00
2023-05-02T16:43:03.100Z,11.90
2023-05-02T16:44:25.335Z,11.90
2023-05-02T16:45:47.447Z,11.80
2023-05-02T16:47:09.792Z,11.80
2023-05-02T16:48:32.805Z,11.70
2023-05-02T16:49:58.391Z,11.70
2023-05-02T16:51:20.864Z,11.60
2023-05-02T16:52:44.404Z,11.60
2023-05-02T16:54:07.216Z,11.60
2023-05-02T16:55:29.402Z,11.70
2023-05-02T16:56:51.932Z,11.70
2023-05-02T16:58:14.217Z,11.80
2023-05-02T16:59:37.095Z,11.80
2023-05-02T17:01:00.993Z,11.80
2023-05-02T17:02:23.613Z,11.80
2023-05-02T17:03:46.667Z,11.80
2023-05-02T17:05:10.664Z,11.80
2023-05-02T17:06:33.041Z,11.80
2023-05-02T17:07:55.350Z,11.80
2023-05-02T17:09:18.534Z,11.90
2023-05-02T17:10:40.646Z,11.90
2023-05-02T17:12:04.358Z,12.00
2023-05-02T17:13:26.681Z,12.00
2023-05-02T17:14:49.190Z,12.00
2023-05-02T17:16:11.581Z,12.00
2023-05-02T17:17:33.980Z,12.00
2023-05-02T17:18:56.278Z,12.10
2023-05-02T17:20:20.956Z,12.20
2023-05-02T17:21:43.206Z,12.30
2023-05-02T17:23:05.529Z,12.30
2023-05-02T17:24:29.914Z,12.20
2023-05-02T17:25:52.348Z,12.30
2023-05-02T17:27:34.733Z,12.20
2023-05-02T17:29:00.012Z,12.20
2023-05-02T17:30:22.195Z,12.10
2023-05-02T17:31:44.603Z,12.10
2023-05-02T17:33:06.932Z,12.10
2023-05-02T17:34:33.597Z,12.10
2023-05-02T17:35:56.216Z,12.00
2023-05-02T17:37:18.417Z,12.00
2023-05-02T17:38:41.872Z,12.10
2023-05-02T17:40:07.895Z,12.00
2023-05-02T17:41:30.980Z,12.00
2023-05-02T17:42:53.188Z,12.00
2023-05-02T17:44:18.492Z,12.00
2023-05-02T17:45:41.565Z,12.00
2023-05-02T17:47:04.382Z,12.00
2023-05-02T17:48:26.476Z,12.10
2023-05-02T17:49:51.088Z,12.10
2023-05-02T17:51:13.317Z,12.00
2023-05-02T17:52:35.731Z,11.90
2023-05-02T17:53:57.813Z,11.80
2023-05-02T17:55:20.026Z,11.80
2023-05-02T17:56:42.682Z,11.80
2023-05-02T17:58:04.926Z,11.70
2023-05-02T17:59:27.311Z,11.70
2023-05-02T18:00:49.395Z,11.60
2023-05-02T18:02:11.767Z,11.50
2023-05-02T18:03:33.978Z,11.50
2023-05-02T18:04:56.088Z,11.30
2023-05-02T18:06:18.794Z,11.30
2023-05-02T18:07:40.871Z,11.20
2023-05-02T18:09:03.021Z,11.10
2023-05-02T18:10:25.101Z,11.10
2023-05-02T18:11:47.299Z,11.00
2023-05-02T18:13:09.863Z,10.90
2023-05-02T18:14:32.313Z,10.90
2023-05-02T18:16:04.786Z,10.80